Time;durP1;ratioP1;P1;durP2;ratioP2;P2;SDS_P1;SDS_P2;PMS_P1;PMS_P2;Temp;Humidity;BMP_temperature;BMP_pressure;BME280_temperature;BME280_humidity;BME280_pressure;Samples;Min_cycle;Max_cycle;Signal;HPM_P1;HPM_P2
2022/02/23 00:00:25;;;;;;;0.77;0.32;;;8.60;99.90;;;;;;5027971;28;20505;-71
2022/02/23 00:02:50;;;;;;;1.92;1.15;;;8.70;99.90;;;;;;5030201;28;20026;-73
2022/02/23 00:05:16;;;;;;;1.30;0.50;;;8.60;99.90;;;;;;5030726;28;20033;-71
2022/02/23 00:07:41;;;;;;;1.85;0.30;;;8.60;99.90;;;;;;5025164;28;20034;-74
2022/02/23 00:10:07;;;;;;;3.70;0.90;;;8.60;99.90;;;;;;5028154;28;20048;-73
2022/02/23 00:12:33;;;;;;;1.13;0.52;;;8.60;99.90;;;;;;5025818;28;20045;-71
2022/02/23 00:14:59;;;;;;;2.35;0.68;;;8.60;99.90;;;;;;5037610;28;20034;-72
2022/02/23 00:17:25;;;;;;;1.08;0.50;;;8.60;99.90;;;;;;5032907;28;20029;-74
2022/02/23 00:19:52;;;;;;;3.40;0.80;;;8.70;99.90;;;;;;5032417;28;20124;-72
2022/02/23 00:22:18;;;;;;;2.75;0.80;;;8.70;99.90;;;;;;5022978;28;20419;-71
2022/02/23 00:24:43;;;;;;;1.60;0.80;;;8.70;99.90;;;;;;5029686;28;20026;-72
2022/02/23 00:27:09;;;;;;;1.13;0.50;;;8.70;99.90;;;;;;5027240;28;20486;-72
2022/02/23 00:29:35;;;;;;;1.98;0.50;;;8.70;99.90;;;;;;5024905;28;20084;-70
2022/02/23 00:32:01;;;;;;;0.38;0.38;;;8.60;99.90;;;;;;5024966;28;20091;-72
2022/02/23 00:34:27;;;;;;;1.02;0.50;;;8.60;99.90;;;;;;5029679;28;20112;-74
2022/02/23 00:36:54;;;;;;;0.65;0.45;;;8.70;99.90;;;;;;5039166;28;20112;-74
2022/02/23 00:39:20;;;;;;;1.95;0.80;;;8.70;99.90;;;;;;5024585;28;20029;-73
2022/02/23 00:41:46;;;;;;;1.15;0.50;;;8.60;99.90;;;;;;5028420;28;20028;-73
2022/02/23 00:44:12;;;;;;;0.95;0.60;;;8.60;99.90;;;;;;5030386;28;20025;-74
2022/02/23 00:46:37;;;;;;;2.58;0.60;;;8.60;99.90;;;;;;5039290;28;20025;-75
2022/02/23 00:49:03;;;;;;;1.75;0.60;;;8.60;99.90;;;;;;5028411;28;20030;-75
2022/02/23 00:51:29;;;;;;;0.90;0.47;;;8.60;99.90;;;;;;5024689;28;20021;-76
2022/02/23 00:53:54;;;;;;;1.65;0.60;;;8.60;99.90;;;;;;5022109;28;20518;-76
2022/02/23 00:56:20;;;;;;;1.48;0.50;;;8.60;99.90;;;;;;5027553;28;20400;-75
2022/02/23 00:58:45;;;;;;;2.05;0.50;;;8.70;99.90;;;;;;5019242;28;20550;-75
2022/02/23 01:01:11;;;;;;;2.63;0.85;;;8.70;99.90;;;;;;5030558;28;20025;-75
2022/02/23 01:03:37;;;;;;;1.98;0.60;;;8.60;99.90;;;;;;5027231;28;20379;-75
2022/02/23 01:06:02;;;;;;;1.58;0.57;;;8.50;99.90;;;;;;5026792;28;20034;-74
2022/02/23 01:08:28;;;;;;;1.05;0.57;;;8.60;99.90;;;;;;5029416;28;20025;-76
2022/02/23 01:10:53;;;;;;;2.72;1.13;;;8.60;99.90;;;;;;5042417;28;20029;-76
2022/02/23 01:13:19;;;;;;;2.55;0.60;;;8.70;99.90;;;;;;5029142;28;20468;-75
2022/02/23 01:15:45;;;;;;;0.90;0.80;;;8.70;99.90;;;;;;5022836;28;20017;-76
2022/02/23 01:18:11;;;;;;;1.77;0.50;;;8.60;99.90;;;;;;5025338;28;20025;-75
2022/02/23 01:20:36;;;;;;;0.82;0.43;;;8.60;99.90;;;;;;5029704;28;20508;-74
2022/02/23 01:23:02;;;;;;;3.22;0.57;;;8.60;99.90;;;;;;5020301;28;20053;-76
2022/02/23 01:25:29;;;;;;;3.90;0.82;;;8.50;99.90;;;;;;5026108;28;20069;-76
2022/02/23 01:27:55;;;;;;;1.23;0.50;;;8.50;99.90;;;;;;5018593;28;20060;-75
2022/02/23 01:30:21;;;;;;;1.23;0.60;;;8.50;99.90;;;;;;5029741;28;20025;-74
2022/02/23 01:32:46;;;;;;;0.73;0.50;;;8.50;99.90;;;;;;5032692;28;20028;-71
2022/02/23 01:35:12;;;;;;;2.05;0.50;;;8.50;99.90;;;;;;5028699;28;20117;-72
2022/02/23 01:37:37;;;;;;;2.90;1.60;;;8.60;99.90;;;;;;5027733;28;20032;-71
2022/02/23 01:40:04;;;;;;;2.45;0.70;;;8.50;99.90;;;;;;5032417;28;20401;-72
2022/02/23 01:42:30;;;;;;;1.05;0.68;;;8.40;99.90;;;;;;5048609;28;20485;-71
2022/02/23 01:44:55;;;;;;;0.85;0.55;;;8.40;99.90;;;;;;5034496;28;20088;-72
2022/02/23 01:47:21;;;;;;;2.05;0.60;;;8.30;99.90;;;;;;5046965;28;20033;-72
2022/02/23 01:49:46;;;;;;;2.45;0.88;;;8.40;99.90;;;;;;5030066;28;20026;-72
2022/02/23 01:52:12;;;;;;;1.80;0.50;;;7.40;99.90;;;;;;5043534;28;20025;-72
2022/02/23 01:54:38;;;;;;;3.30;0.70;;;6.90;99.90;;;;;;5029753;28;20037;-71
2022/02/23 01:57:04;;;;;;;3.97;1.00;;;6.40;99.90;;;;;;5032722;28;20112;-70
2022/02/23 01:59:30;;;;;;;3.50;0.88;;;6.00;99.90;;;;;;5019463;28;20018;-72
2022/02/23 02:01:55;;;;;;;1.88;0.50;;;5.90;99.90;;;;;;5022906;28;20084;-71
2022/02/23 02:04:24;;;;;;;6.38;1.27;;;5.80;99.90;;;;;;5023113;28;20495;-71
2022/02/23 02:06:50;;;;;;;5.38;1.05;;;5.70;99.90;;;;;;5029002;28;20021;-71
2022/02/23 02:09:17;;;;;;;3.45;1.60;;;5.80;99.90;;;;;;5028173;28;20108;-72
2022/02/23 02:11:42;;;;;;;3.90;1.00;;;5.80;99.90;;;;;;5027239;28;20048;-73
2022/02/23 02:14:08;;;;;;;4.53;0.90;;;5.80;99.90;;;;;;5028735;28;20030;-71
2022/02/23 02:16:33;;;;;;;5.75;1.30;;;5.80;99.90;;;;;;5027156;28;20036;-71
2022/02/23 02:19:01;;;;;;;3.72;0.90;;;5.80;99.90;;;;;;5027767;28;20432;-73
2022/02/23 02:21:52;;;;;;;2.97;1.52;;;5.80;99.90;;;;;;5034467;28;20021;-73
2022/02/23 02:24:17;;;;;;;5.45;2.08;;;5.80;99.90;;;;;;5021511;28;20030;-70
2022/02/23 02:26:44;;;;;;;5.10;1.42;;;5.80;99.90;;;;;;5022666;28;20029;-71
2022/02/23 02:29:09;;;;;;;6.30;0.80;;;5.80;99.90;;;;;;5018414;28;20030;-71
2022/02/23 02:31:35;;;;;;;3.42;0.88;;;5.70;99.90;;;;;;5017925;28;20033;-71
2022/02/23 02:34:00;;;;;;;6.25;0.73;;;5.80;99.90;;;;;;5019870;28;20029;-71
2022/02/23 02:36:26;;;;;;;7.05;1.10;;;5.80;99.90;;;;;;5021112;28;20547;-71
2022/02/23 02:38:51;;;;;;;4.57;1.17;;;5.80;99.90;;;;;;5026196;28;20026;-71
2022/02/23 02:41:17;;;;;;;6.45;1.02;;;5.80;99.90;;;;;;5020563;28;20017;-72
2022/02/23 02:43:42;;;;;;;5.32;0.98;;;5.80;99.90;;;;;;5022734;28;20022;-70
2022/02/23 02:46:08;;;;;;;3.08;0.70;;;5.90;99.90;;;;;;5022128;28;20076;-72
2022/02/23 02:48:33;;;;;;;4.85;1.40;;;5.90;99.90;;;;;;5024510;28;20030;-71
2022/02/23 02:50:59;;;;;;;6.60;1.10;;;5.90;99.90;;;;;;5032795;28;20075;-71
2022/02/23 02:53:25;;;;;;;3.17;1.30;;;5.90;99.90;;;;;;5026675;28;20025;-72
2022/02/23 02:55:50;;;;;;;5.15;1.63;;;5.90;99.90;;;;;;5016345;28;20026;-72
2022/02/23 02:58:16;;;;;;;5.05;0.68;;;6.00;99.90;;;;;;5025836;28;20030;-71
2022/02/23 03:00:42;;;;;;;6.97;1.10;;;5.90;99.90;;;;;;5029389;28;20018;-72
2022/02/23 03:03:07;;;;;;;6.75;2.28;;;6.00;99.90;;;;;;5046600;28;20062;-72
2022/02/23 03:05:33;;;;;;;3.10;1.20;;;6.10;99.90;;;;;;5023728;28;20385;-71
2022/02/23 03:07:59;;;;;;;8.23;2.50;;;6.10;99.90;;;;;;5019477;28;20033;-71
2022/02/23 03:10:25;;;;;;;5.57;1.75;;;6.10;99.90;;;;;;5018625;28;20039;-72
2022/02/23 03:12:50;;;;;;;8.38;1.05;;;6.10;99.90;;;;;;5023562;28;20079;-71
2022/02/23 03:15:16;;;;;;;5.95;0.95;;;6.10;99.90;;;;;;5026155;28;20108;-71
2022/02/23 03:17:41;;;;;;;5.47;1.10;;;6.10;99.90;;;;;;5020748;28;20084;-71
2022/02/23 03:20:08;;;;;;;8.32;1.73;;;6.20;99.90;;;;;;5028618;28;20020;-70
2022/02/23 03:22:35;;;;;;;5.97;1.23;;;6.20;99.90;;;;;;5029032;28;20060;-72
2022/02/23 03:25:01;;;;;;;7.03;0.93;;;6.20;99.90;;;;;;5020956;28;20018;-71
2022/02/23 03:27:26;;;;;;;5.82;1.48;;;6.30;99.90;;;;;;5022504;28;20095;-71
2022/02/23 03:29:52;;;;;;;5.55;1.17;;;6.30;99.90;;;;;;5026113;28;20473;-70
2022/02/23 03:32:18;;;;;;;4.75;1.63;;;6.30;99.90;;;;;;5027910;28;20100;-71
2022/02/23 03:34:44;;;;;;;4.47;1.27;;;6.20;99.90;;;;;;5013251;28;20052;-71
2022/02/23 03:37:09;;;;;;;6.25;1.60;;;6.20;99.90;;;;;;5022417;28;20021;-71
2022/02/23 03:39:35;;;;;;;5.88;1.67;;;6.10;99.90;;;;;;5016703;28;20013;-72
2022/02/23 03:42:00;;;;;;;8.48;1.60;;;6.00;99.90;;;;;;5021423;28;20014;-71
2022/02/23 03:44:26;;;;;;;6.25;1.33;;;5.90;99.90;;;;;;5026711;28;20025;-72
2022/02/23 03:46:51;;;;;;;5.45;1.52;;;5.80;99.90;;;;;;5036674;28;20094;-71
2022/02/23 03:49:17;;;;;;;7.43;1.00;;;5.80;99.90;;;;;;5020912;28;20037;-71
2022/02/23 03:51:43;;;;;;;4.85;1.45;;;5.70;99.90;;;;;;5029033;28;20024;-71
2022/02/23 03:54:08;;;;;;;6.00;1.50;;;5.60;99.90;;;;;;5031241;28;20100;-72
2022/02/23 03:56:42;;;;;;;11.05;1.77;;;5.60;99.90;;;;;;5025364;28;20051;-72
2022/02/23 03:59:11;;;;;;;6.93;1.58;;;5.50;99.90;;;;;;5031427;28;20104;-71
2022/02/23 04:01:39;;;;;;;8.27;1.27;;;5.70;99.90;;;;;;5027314;28;20124;-72
2022/02/23 04:04:06;;;;;;;6.88;1.98;;;5.70;99.90;;;;;;5023091;28;20029;-71
2022/02/23 04:06:32;;;;;;;5.97;1.50;;;5.80;99.90;;;;;;5027659;28;20413;-72
2022/02/23 04:09:00;;;;;;;7.68;1.15;;;5.90;99.90;;;;;;5025169;28;20032;-71
2022/02/23 04:11:25;;;;;;;6.30;1.48;;;5.90;99.90;;;;;;5022020;28;20381;-71
2022/02/23 04:13:51;;;;;;;7.93;1.42;;;5.90;99.90;;;;;;5029548;28;20029;-72
2022/02/23 04:16:16;;;;;;;5.00;1.33;;;5.90;99.90;;;;;;5026220;28;20032;-72
2022/02/23 04:18:44;;;;;;;9.50;1.65;;;5.90;99.90;;;;;;5028429;28;20030;-71
2022/02/23 04:21:10;;;;;;;5.65;1.48;;;5.90;99.90;;;;;;5034090;28;20017;-71
2022/02/23 04:23:35;;;;;;;7.10;1.65;;;5.90;99.90;;;;;;5028641;28;20449;-71
2022/02/23 04:26:01;;;;;;;6.20;1.40;;;6.00;99.90;;;;;;5018582;28;20068;-71
2022/02/23 04:28:29;;;;;;;9.02;1.45;;;5.90;99.90;;;;;;5023167;28;20034;-71
2022/02/23 04:30:55;;;;;;;3.78;1.33;;;5.90;99.90;;;;;;5023750;28;20034;-71
2022/02/23 04:33:21;;;;;;;7.07;3.25;;;5.90;99.90;;;;;;5030370;28;20034;-71
2022/02/23 04:35:47;;;;;;;7.70;1.85;;;6.00;99.90;;;;;;5024164;28;20018;-71
2022/02/23 04:38:17;;;;;;;5.70;1.52;;;6.00;99.90;;;;;;5023306;28;20486;-71
2022/02/23 04:40:43;;;;;;;8.52;1.40;;;6.00;99.90;;;;;;5026288;28;20109;-72
2022/02/23 04:43:10;;;;;;;6.70;2.45;;;6.00;99.90;;;;;;5021347;28;20109;-72
2022/02/23 04:45:35;;;;;;;8.25;1.38;;;6.00;99.90;;;;;;5028032;28;20026;-71
2022/02/23 04:48:01;;;;;;;3.53;1.25;;;5.90;99.90;;;;;;5025517;28;20033;-71
2022/02/23 04:50:26;;;;;;;6.30;1.45;;;5.80;99.90;;;;;;5019494;28;20041;-72
2022/02/23 04:52:52;;;;;;;5.70;1.60;;;5.80;99.90;;;;;;5027388;28;20026;-70
2022/02/23 04:55:18;;;;;;;10.95;2.55;;;5.70;99.90;;;;;;5024414;28;20029;-72
2022/02/23 04:57:43;;;;;;;4.00;1.85;;;5.60;99.90;;;;;;5027986;28;20096;-71
2022/02/23 05:00:10;;;;;;;17.92;3.05;;;5.60;99.90;;;;;;5022103;28;20429;-71
2022/02/23 05:02:35;;;;;;;6.22;1.85;;;5.60;99.90;;;;;;5028701;28;20025;-72
2022/02/23 05:05:01;;;;;;;10.50;1.70;;;5.50;99.90;;;;;;5024969;28;20389;-71
2022/02/23 05:07:28;;;;;;;5.15;1.85;;;5.50;99.90;;;;;;5028165;28;20030;-72
2022/02/23 05:09:55;;;;;;;6.93;1.27;;;5.50;99.90;;;;;;5024677;28;20029;-72
2022/02/23 05:12:21;;;;;;;8.18;2.10;;;5.40;99.90;;;;;;5032250;28;20052;-72
2022/02/23 05:14:46;;;;;;;6.25;1.80;;;5.40;99.90;;;;;;5028610;28;20394;-72
2022/02/23 05:17:14;;;;;;;10.32;2.60;;;5.30;99.90;;;;;;5026608;28;20021;-72
2022/02/23 05:19:40;;;;;;;5.20;1.80;;;5.20;99.90;;;;;;5026789;28;20116;-71
2022/02/23 05:22:06;;;;;;;6.93;1.52;;;5.30;99.90;;;;;;5025026;28;20640;-72
2022/02/23 05:24:33;;;;;;;9.30;1.95;;;5.30;99.90;;;;;;5023560;28;20030;-72
2022/02/23 05:26:59;;;;;;;5.55;1.27;;;5.20;99.90;;;;;;5027617;28;20032;-71
2022/02/23 05:29:25;;;;;;;5.95;1.67;;;5.10;99.90;;;;;;5027041;28;20018;-71
2022/02/23 05:31:52;;;;;;;9.10;2.28;;;5.10;99.90;;;;;;5029002;28;20030;-72
2022/02/23 05:34:18;;;;;;;7.68;1.55;;;5.10;99.90;;;;;;5028240;28;20030;-72
2022/02/23 05:36:44;;;;;;;7.03;1.90;;;5.10;99.90;;;;;;5025640;28;20056;-71
2022/02/23 05:39:09;;;;;;;5.15;1.92;;;5.00;99.90;;;;;;5025200;28;20057;-72
2022/02/23 05:41:35;;;;;;;16.50;5.32;;;5.00;99.90;;;;;;5024309;28;20025;-72
2022/02/23 05:44:01;;;;;;;11.40;3.33;;;5.00;99.90;;;;;;5024508;28;20030;-71
2022/02/23 05:46:27;;;;;;;8.77;2.28;;;4.90;99.90;;;;;;5024293;28;20047;-71
2022/02/23 05:48:53;;;;;;;6.80;3.65;;;4.80;99.90;;;;;;5022864;28;20344;-71
2022/02/23 05:51:32;;;;;;;8.48;2.95;;;4.80;99.90;;;;;;5018819;28;20090;-71
2022/02/23 05:53:58;;;;;;;8.43;2.42;;;4.80;99.90;;;;;;5031133;28;20079;-71
2022/02/23 05:56:26;;;;;;;11.00;2.03;;;4.70;99.90;;;;;;5025006;28;20022;-72
2022/02/23 05:58:51;;;;;;;9.18;2.17;;;4.60;99.90;;;;;;5021596;28;20101;-70
2022/02/23 06:01:17;;;;;;;12.40;2.30;;;4.60;99.90;;;;;;5026708;28;20117;-71
2022/02/23 06:03:43;;;;;;;9.00;2.42;;;4.70;99.90;;;;;;5022665;28;20022;-72
2022/02/23 06:06:09;;;;;;;9.55;2.33;;;4.70;99.90;;;;;;5019518;28;21063;-70
2022/02/23 06:08:34;;;;;;;8.40;1.88;;;4.80;99.90;;;;;;5025028;28;20025;-72
2022/02/23 06:11:00;;;;;;;8.15;2.38;;;4.90;99.90;;;;;;5024826;28;20394;-72
2022/02/23 06:13:25;;;;;;;6.70;2.08;;;5.00;99.90;;;;;;5028349;28;20029;-72
2022/02/23 06:15:51;;;;;;;11.40;2.90;;;5.10;99.90;;;;;;5023983;28;20452;-71
2022/02/23 06:18:16;;;;;;;12.65;2.80;;;5.10;99.90;;;;;;5028877;28;20040;-72
2022/02/23 06:20:42;;;;;;;9.00;2.85;;;5.10;99.90;;;;;;5023198;28;20548;-71
2022/02/23 06:23:07;;;;;;;7.90;2.30;;;5.10;99.90;;;;;;5021699;28;20025;-71
2022/02/23 06:25:33;;;;;;;7.18;2.53;;;5.10;99.90;;;;;;5025666;28;20068;-72
2022/02/23 06:27:59;;;;;;;9.68;2.47;;;5.10;99.90;;;;;;5022539;28;20033;-72
2022/02/23 06:30:25;;;;;;;17.50;3.08;;;5.10;99.90;;;;;;5023857;28;20036;-71
2022/02/23 06:32:50;;;;;;;8.00;4.20;;;5.20;99.90;;;;;;5021070;28;20057;-71
2022/02/23 06:35:16;;;;;;;7.78;2.92;;;5.20;99.90;;;;;;5024217;28;20030;-72
2022/02/23 06:37:41;;;;;;;10.05;2.63;;;5.30;99.90;;;;;;5017822;28;20033;-70
2022/02/23 06:40:08;;;;;;;10.05;3.05;;;5.30;99.90;;;;;;5023624;28;20076;-71
2022/02/23 06:42:36;;;;;;;13.10;4.00;;;5.30;99.90;;;;;;5021204;28;20483;-72
2022/02/23 06:45:04;;;;;;;8.80;3.35;;;5.30;99.90;;;;;;5021325;28;20038;-71
2022/02/23 06:47:30;;;;;;;7.57;4.03;;;5.30;99.90;;;;;;5024552;28;20048;-72
2022/02/23 06:49:56;;;;;;;10.80;3.85;;;5.30;99.90;;;;;;5027159;28;20112;-70
2022/02/23 06:52:22;;;;;;;10.18;2.95;;;5.30;99.90;;;;;;5022207;28;20459;-71
2022/02/23 06:54:48;;;;;;;12.80;3.35;;;5.40;99.90;;;;;;5027267;28;20036;-71
2022/02/23 06:57:14;;;;;;;10.75;2.72;;;5.40;99.90;;;;;;5025059;28;20025;-72
2022/02/23 06:59:40;;;;;;;6.72;2.50;;;5.40;99.90;;;;;;5023093;28;20021;-73
2022/02/23 07:02:07;;;;;;;9.93;3.03;;;5.40;99.90;;;;;;5025022;28;20032;-71
2022/02/23 07:04:33;;;;;;;7.85;3.28;;;5.50;99.90;;;;;;5036052;28;20021;-72
2022/02/23 07:06:58;;;;;;;15.32;3.67;;;5.60;99.90;;;;;;5021726;28;20036;-71
2022/02/23 07:09:24;;;;;;;10.27;3.10;;;5.70;99.90;;;;;;5023926;28;20367;-71
2022/02/23 07:11:49;;;;;;;4.85;2.25;;;5.80;99.90;;;;;;5023786;28;20056;-71
2022/02/23 07:14:15;;;;;;;13.07;3.05;;;5.70;99.90;;;;;;5023272;28;20030;-72
2022/02/23 07:16:41;;;;;;;16.85;3.25;;;5.70;99.90;;;;;;5024889;28;20048;-71
2022/02/23 07:19:07;;;;;;;8.32;2.35;;;5.70;99.90;;;;;;5020609;28;20123;-71
2022/02/23 07:21:34;;;;;;;10.43;2.95;;;5.80;99.90;;;;;;5028960;28;20155;-72
2022/02/23 07:24:00;;;;;;;8.52;2.85;;;5.80;99.90;;;;;;5027410;28;20493;-72
2022/02/23 07:26:26;;;;;;;8.75;2.38;;;5.80;99.90;;;;;;5027282;28;20041;-72
2022/02/23 07:28:52;;;;;;;6.35;2.65;;;6.10;99.90;;;;;;5028779;28;20026;-71
2022/02/23 07:31:18;;;;;;;7.05;3.22;;;6.10;99.90;;;;;;5028327;28;20037;-71
2022/02/23 07:33:44;;;;;;;7.47;2.80;;;6.10;99.90;;;;;;5018206;28;20026;-72
2022/02/23 07:36:10;;;;;;;6.30;2.63;;;6.10;99.90;;;;;;5019759;28;20060;-72
2022/02/23 07:38:40;;;;;;;8.77;2.70;;;6.30;99.90;;;;;;5025526;28;20064;-71
2022/02/23 07:41:07;;;;;;;6.65;2.45;;;6.20;99.90;;;;;;5027817;28;20029;-72
2022/02/23 07:43:34;;;;;;;9.90;3.10;;;6.30;99.90;;;;;;5026162;28;20103;-71
2022/02/23 07:46:00;;;;;;;5.70;3.00;;;6.40;99.90;;;;;;5026580;28;20039;-72
2022/02/23 07:48:25;;;;;;;7.50;3.08;;;6.50;99.90;;;;;;5026357;28;20504;-71
2022/02/23 07:50:51;;;;;;;10.35;3.28;;;6.70;99.90;;;;;;5031282;28;20045;-71
2022/02/23 07:53:17;;;;;;;8.30;3.90;;;6.70;99.90;;;;;;5026632;28;20601;-72
2022/02/23 07:55:42;;;;;;;5.55;2.22;;;6.70;99.90;;;;;;5030326;28;20026;-71
2022/02/23 07:58:08;;;;;;;6.75;3.03;;;6.90;99.90;;;;;;5023978;28;20029;-72
2022/02/23 08:00:35;;;;;;;6.07;2.30;;;7.20;99.90;;;;;;5028613;28;20022;-72
2022/02/23 08:03:00;;;;;;;9.38;2.90;;;7.30;99.90;;;;;;5029280;28;20017;-72
2022/02/23 08:05:26;;;;;;;5.57;2.53;;;7.20;99.90;;;;;;5028542;28;20048;-71
2022/02/23 08:07:54;;;;;;;6.43;2.47;;;7.10;99.90;;;;;;5023370;28;20037;-77
2022/02/23 08:10:20;;;;;;;6.85;2.90;;;7.10;99.90;;;;;;5021803;28;20108;-77
2022/02/23 08:12:45;;;;;;;6.85;2.88;;;7.10;99.90;;;;;;5024436;28;20117;-77
2022/02/23 08:20:41;;;;;;;10.50;2.78;;;7.90;99.90;;;;;;5031720;28;20421;-73
2022/02/23 08:23:07;;;;;;;8.38;3.55;;;8.10;99.90;;;;;;5027466;28;20026;-73
2022/02/23 08:25:33;;;;;;;5.18;3.08;;;8.00;99.90;;;;;;5033281;28;20028;-74
2022/02/23 08:27:58;;;;;;;8.32;2.70;;;7.80;99.90;;;;;;5022169;28;20029;-73
2022/02/23 08:30:24;;;;;;;6.35;3.15;;;7.90;99.90;;;;;;5030392;28;20029;-74
2022/02/23 08:32:50;;;;;;;8.57;2.58;;;8.10;99.90;;;;;;5023666;28;20052;-73
2022/02/23 08:35:16;;;;;;;8.20;3.05;;;8.20;99.90;;;;;;5023502;28;20026;-74
2022/02/23 08:37:42;;;;;;;10.25;3.80;;;8.40;99.90;;;;;;5024017;28;20025;-74
2022/02/23 08:40:08;;;;;;;12.40;3.00;;;8.30;99.90;;;;;;5029191;28;20121;-73
2022/02/23 08:42:34;;;;;;;7.80;2.65;;;8.50;99.90;;;;;;5031812;28;20536;-73
2022/02/23 08:45:00;;;;;;;10.35;3.85;;;8.60;99.90;;;;;;5031745;28;20021;-73
2022/02/23 08:47:28;;;;;;;7.05;2.88;;;8.50;99.90;;;;;;5025516;28;20036;-72
2022/02/23 08:49:53;;;;;;;8.85;4.10;;;8.60;99.90;;;;;;5028446;28;20541;-74
2022/02/23 08:52:19;;;;;;;10.70;4.85;;;8.60;99.90;;;;;;5027283;28;20106;-74
2022/02/23 08:54:44;;;;;;;11.02;3.47;;;8.60;99.90;;;;;;5026766;28;20056;-74
2022/02/23 08:57:10;;;;;;;7.85;3.40;;;8.70;99.90;;;;;;5026718;28;20025;-73
2022/02/23 08:59:36;;;;;;;10.30;2.78;;;8.90;99.90;;;;;;5032464;28;20435;-74
2022/02/23 09:02:03;;;;;;;10.13;3.35;;;9.10;99.90;;;;;;5029252;28;20025;-73
2022/02/23 09:04:28;;;;;;;9.48;3.58;;;9.30;99.90;;;;;;5040000;28;20084;-73
2022/02/23 09:06:54;;;;;;;6.30;3.50;;;9.40;99.90;;;;;;5035002;28;20056;-73
2022/02/23 09:09:21;;;;;;;9.18;2.90;;;9.40;99.90;;;;;;5038846;28;20083;-73
2022/02/23 09:11:47;;;;;;;8.18;2.90;;;9.40;99.90;;;;;;5046769;28;20036;-74
2022/02/23 09:14:16;;;;;;;8.57;2.85;;;9.30;99.90;;;;;;5040681;28;20029;-74
2022/02/23 09:16:44;;;;;;;10.48;2.58;;;9.30;99.90;;;;;;5026950;28;20400;-75
2022/02/23 09:19:09;;;;;;;14.52;3.00;;;9.20;99.90;;;;;;5027112;28;20022;-74
2022/02/23 09:21:35;;;;;;;4.68;2.67;;;9.30;99.90;;;;;;5025513;28;20026;-74
2022/02/23 09:24:01;;;;;;;12.73;3.38;;;9.50;99.90;;;;;;5019867;28;20041;-73
2022/02/23 09:26:28;;;;;;;13.43;2.70;;;9.50;99.90;;;;;;5022290;28;20401;-73
2022/02/23 09:28:54;;;;;;;7.65;2.88;;;9.40;99.90;;;;;;5029029;28;20040;-74
2022/02/23 09:31:20;;;;;;;11.32;2.67;;;9.60;99.90;;;;;;5031422;28;20593;-73
2022/02/23 09:33:46;;;;;;;5.72;2.00;;;9.60;99.90;;;;;;5024022;28;20103;-73
2022/02/23 09:36:11;;;;;;;5.60;2.38;;;9.60;99.90;;;;;;5023556;28;20068;-73
2022/02/23 09:38:37;;;;;;;8.15;2.42;;;9.90;99.90;;;;;;5034156;28;20021;-74
2022/02/23 09:41:04;;;;;;;7.45;2.72;;;10.20;99.90;;;;;;5028882;28;20072;-74
2022/02/23 09:43:31;;;;;;;7.50;2.85;;;10.30;99.90;;;;;;5031513;28;20049;-73
2022/02/23 09:45:57;;;;;;;4.65;2.92;;;10.20;99.90;;;;;;5025754;28;20033;-72
2022/02/23 09:48:28;;;;;;;8.18;1.98;;;10.20;99.90;;;;;;5028555;28;20022;-72
2022/02/23 09:50:55;;;;;;;3.45;1.80;;;10.40;99.90;;;;;;5017572;28;20022;-74
2022/02/23 09:53:22;;;;;;;8.88;2.85;;;10.50;99.90;;;;;;5024980;28;20021;-73
2022/02/23 09:55:48;;;;;;;8.60;1.95;;;10.50;99.90;;;;;;5026066;28;20022;-74
2022/02/23 09:58:14;;;;;;;8.02;1.90;;;10.50;99.90;;;;;;5028161;28;22446;-73
2022/02/23 10:00:41;;;;;;;5.72;2.15;;;10.60;99.90;;;;;;5024024;28;20108;-73
2022/02/23 10:03:07;;;;;;;10.40;2.88;;;10.70;99.90;;;;;;5034560;28;20065;-73
2022/02/23 10:05:41;;;;;;;9.73;2.58;;;10.90;99.90;;;;;;5024392;28;20557;-73
2022/02/23 10:08:09;;;;;;;6.80;2.15;;;11.00;99.90;;;;;;5022824;28;20498;-73
2022/02/23 10:10:40;;;;;;;9.48;2.67;;;11.00;99.90;;;;;;5031354;28;20485;-74
2022/02/23 10:13:07;;;;;;;;;;;11.00;99.90;;;;;;5021669;28;20030;-73
2022/02/23 10:15:41;;;;;;;7.70;3.00;;;11.00;99.90;;;;;;5033617;28;19952;-75
2022/02/23 10:18:12;;;;;;;5.65;2.47;;;10.90;99.90;;;;;;5037605;28;20025;-73
2022/02/23 10:20:39;;;;;;;8.82;2.38;;;10.80;99.90;;;;;;5037790;28;20072;-74
2022/02/23 10:23:20;;;;;;;6.68;1.95;;;10.80;99.90;;;;;;5025102;28;20589;-74
2022/02/23 10:26:02;;;;;;;5.70;2.17;;;10.80;99.90;;;;;;5025350;28;20115;-74
2022/02/23 10:28:34;;;;;;;8.43;2.58;;;10.60;99.90;;;;;;5036020;28;20026;-74
2022/02/23 10:31:03;;;;;;;9.07;1.70;;;10.60;99.90;;;;;;5035273;28;20025;-73
2022/02/23 10:33:33;;;;;;;5.22;1.85;;;10.70;99.90;;;;;;5026292;28;20083;-72
2022/02/23 10:36:07;;;;;;;5.28;1.60;;;10.90;99.90;;;;;;5025948;28;20033;-73
2022/02/23 10:38:35;;;;;;;5.00;1.60;;;11.00;99.90;;;;;;5025274;28;20016;-73
2022/02/23 10:41:04;;;;;;;7.78;1.60;;;11.10;99.90;;;;;;5034535;28;20018;-73
2022/02/23 10:43:30;;;;;;;6.85;3.05;;;11.10;99.90;;;;;;5019824;28;20029;-74
2022/02/23 10:46:08;;;;;;;12.95;2.55;;;11.20;99.90;;;;;;5027605;28;20030;-73
2022/02/23 10:48:40;;;;;;;4.30;2.05;;;11.30;99.90;;;;;;5026781;28;20059;-72
2022/02/23 10:51:09;;;;;;;7.30;2.17;;;11.30;99.90;;;;;;5022967;28;20036;-74
2022/02/23 10:53:36;;;;;;;10.90;2.72;;;11.30;99.90;;;;;;5025997;28;20028;-73
2022/02/23 10:56:19;;;;;;;7.07;2.17;;;11.30;99.90;;;;;;5027157;28;20515;-72
2022/02/23 10:58:45;;;;;;;6.63;2.45;;;11.30;99.90;;;;;;5018461;28;20069;-74
2022/02/23 11:01:11;;;;;;;8.45;2.28;;;11.50;99.90;;;;;;5022006;28;20066;-73
2022/02/23 11:03:36;;;;;;;4.90;2.10;;;11.50;99.90;;;;;;5033803;28;20438;-73
2022/02/23 11:06:02;;;;;;;9.77;2.35;;;11.60;99.90;;;;;;5025165;28;20101;-73
2022/02/23 11:08:28;;;;;;;7.80;1.88;;;11.70;99.90;;;;;;5039833;28;20025;-73
2022/02/23 11:10:54;;;;;;;3.83;1.70;;;11.70;99.90;;;;;;5023459;28;20374;-72
2022/02/23 11:13:22;;;;;;;9.25;1.95;;;11.80;99.90;;;;;;5026272;28;20521;-73
2022/02/23 11:15:49;;;;;;;4.88;1.52;;;11.70;99.90;;;;;;5025008;28;20111;-73
2022/02/23 11:18:17;;;;;;;4.93;2.03;;;11.70;99.90;;;;;;5029316;28;20040;-73
2022/02/23 11:20:44;;;;;;;5.63;1.42;;;11.70;99.90;;;;;;5022809;28;20494;-73
2022/02/23 11:23:18;;;;;;;5.72;1.48;;;11.90;99.90;;;;;;5031557;28;20402;-73
2022/02/23 11:25:46;;;;;;;5.38;1.65;;;12.00;99.90;;;;;;5026612;28;20026;-72
2022/02/23 11:28:30;;;;;;;6.25;1.70;;;12.10;99.90;;;;;;5029503;28;20402;-73
2022/02/23 11:31:05;;;;;;;8.95;1.75;;;12.20;99.90;;;;;;5029581;28;20100;-73
2022/02/23 11:33:49;;;;;;;7.30;1.55;;;12.30;99.90;;;;;;5017166;28;20033;-73
2022/02/23 11:36:18;;;;;;;7.90;1.65;;;12.20;99.90;;;;;;5027725;28;20040;-72
2022/02/23 11:38:48;;;;;;;11.30;3.88;;;12.40;99.90;;;;;;5033908;28;20029;-73
2022/02/23 11:41:31;;;;;;;9.70;1.88;;;12.30;99.90;;;;;;5022733;28;20029;-73
2022/02/23 11:44:09;;;;;;;5.45;1.50;;;12.40;99.90;;;;;;5020644;28;20030;-74
2022/02/23 11:46:56;;;;;;;7.45;2.15;;;12.20;99.90;;;;;;5023444;28;20021;-72
2022/02/23 11:49:25;;;;;;;7.30;1.52;;;12.50;99.90;;;;;;5026796;28;20026;-73
2022/02/23 11:52:12;;;;;;;6.97;2.28;;;12.50;99.90;;;;;;5022833;28;20033;-73
2022/02/23 11:55:09;;;;;;;4.68;1.92;;;12.50;99.90;;;;;;5027937;28;20032;-73
2022/02/23 11:57:56;;;;;;;6.72;1.58;;;12.60;99.90;;;;;;5024871;28;20021;-72
2022/02/23 12:00:24;;;;;;;6.65;2.00;;;12.40;99.90;;;;;;5024887;28;20100;-73
2022/02/23 12:03:02;;;;;;;5.72;1.60;;;12.30;99.90;;;;;;5038655;28;20029;-73
2022/02/23 12:05:46;;;;;;;8.43;2.03;;;12.40;99.90;;;;;;5025214;28;20022;-73
2022/02/23 12:08:42;;;;;;;8.00;1.60;;;12.50;99.90;;;;;;5039338;28;20032;-74
2022/02/23 12:11:17;;;;;;;4.68;0.90;;;12.60;99.90;;;;;;5035772;28;20484;-73
2022/02/23 12:13:51;;;;;;;3.28;1.05;;;12.60;99.70;;;;;;5029347;28;20036;-73
2022/02/23 12:16:23;;;;;;;5.90;1.20;;;12.60;99.70;;;;;;5022766;28;20026;-72
2022/02/23 12:18:50;;;;;;;2.33;0.90;;;12.60;99.30;;;;;;5035475;28;20022;-71
2022/02/23 12:21:16;;;;;;;3.38;1.10;;;12.70;99.50;;;;;;5037305;28;20022;-72
2022/02/23 12:23:46;;;;;;;4.75;1.13;;;12.60;98.80;;;;;;5039824;28;20036;-71
2022/02/23 12:26:16;;;;;;;4.00;1.17;;;12.60;99.60;;;;;;5030652;28;20030;-72
2022/02/23 12:28:47;;;;;;;6.78;1.27;;;12.40;99.90;;;;;;5035183;28;20056;-74
2022/02/23 12:31:16;;;;;;;5.07;1.02;;;12.30;99.90;;;;;;5034749;28;20030;-71
2022/02/23 12:33:44;;;;;;;6.07;1.42;;;12.50;99.90;;;;;;5031282;28;20049;-72
2022/02/23 12:36:13;;;;;;;5.78;1.10;;;12.60;99.90;;;;;;5035887;28;20033;-72
2022/02/23 12:38:49;;;;;;;3.85;1.48;;;12.70;99.90;;;;;;5045202;28;20045;-71
2022/02/23 12:41:20;;;;;;;4.20;1.48;;;12.70;99.90;;;;;;5037249;28;20096;-72
2022/02/23 12:43:58;;;;;;;3.60;1.20;;;12.70;99.90;;;;;;5032334;28;20014;-72
2022/02/23 12:46:24;;;;;;;8.07;1.65;;;12.70;99.90;;;;;;5023412;28;20063;-72
2022/02/23 12:48:54;;;;;;;4.68;1.58;;;12.80;99.90;;;;;;5032315;28;20036;-72
2022/02/23 12:51:20;;;;;;;4.13;1.17;;;12.70;99.90;;;;;;5031204;28;20048;-72
2022/02/23 12:53:47;;;;;;;5.82;1.08;;;12.80;99.90;;;;;;5025883;28;20030;-72
2022/02/23 12:56:28;;;;;;;5.85;1.88;;;12.80;99.90;;;;;;5032331;28;20038;-72
2022/02/23 12:58:59;;;;;;;4.20;0.98;;;12.60;99.90;;;;;;5030870;28;20038;-73